sensor_id;sensor_type;location;lat;lon;timestamp;P1;durP1;ratioP1;P2;durP2;ratioP2
14858;SDS011;7521;51.700;6.874;2023-11-21T00:02:30;18.10;;;10.75;;
14858;SDS011;7521;51.700;6.874;2023-11-21T00:05:35;21.98;;;10.65;;
14858;SDS011;7521;51.700;6.874;2023-11-21T00:08:40;20.23;;;10.10;;
14858;SDS011;7521;51.700;6.874;2023-11-21T00:11:45;19.50;;;10.55;;
14858;SDS011;7521;51.700;6.874;2023-11-21T00:14:50;21.75;;;11.70;;
14858;SDS011;7521;51.700;6.874;2023-11-21T00:17:55;21.27;;;12.32;;
14858;SDS011;7521;51.700;6.874;2023-11-21T00:21:01;22.73;;;12.57;;
14858;SDS011;7521;51.700;6.874;2023-11-21T00:24:06;19.93;;;12.47;;
14858;SDS011;7521;51.700;6.874;2023-11-21T00:27:12;19.93;;;12.63;;
14858;SDS011;7521;51.700;6.874;2023-11-21T00:30:17;21.60;;;13.30;;
14858;SDS011;7521;51.700;6.874;2023-11-21T00:33:22;22.77;;;12.68;;
14858;SDS011;7521;51.700;6.874;2023-11-21T00:36:28;18.43;;;12.33;;
14858;SDS011;7521;51.700;6.874;2023-11-21T00:39:33;21.27;;;11.95;;
14858;SDS011;7521;51.700;6.874;2023-11-21T00:42:40;21.13;;;11.73;;
14858;SDS011;7521;51.700;6.874;2023-11-21T00:45:45;23.20;;;12.68;;
14858;SDS011;7521;51.700;6.874;2023-11-21T00:48:50;16.77;;;10.13;;
14858;SDS011;7521;51.700;6.874;2023-11-21T00:51:55;16.65;;;9.82;;
14858;SDS011;7521;51.700;6.874;2023-11-21T00:55:00;19.13;;;11.03;;
14858;SDS011;7521;51.700;6.874;2023-11-21T00:58:06;18.97;;;7.93;;
14858;SDS011;7521;51.700;6.874;2023-11-21T01:01:11;14.73;;;7.90;;
14858;SDS011;7521;51.700;6.874;2023-11-21T01:04:17;17.43;;;9.07;;
14858;SDS011;7521;51.700;6.874;2023-11-21T01:07:22;16.48;;;8.68;;
14858;SDS011;7521;51.700;6.874;2023-11-21T01:10:27;15.33;;;9.30;;
14858;SDS011;7521;51.700;6.874;2023-11-21T01:13:32;16.50;;;8.35;;
14858;SDS011;7521;51.700;6.874;2023-11-21T01:16:37;12.15;;;8.05;;
14858;SDS011;7521;51.700;6.874;2023-11-21T01:19:43;14.82;;;8.88;;
14858;SDS011;7521;51.700;6.874;2023-11-21T01:22:49;18.40;;;8.83;;
14858;SDS011;7521;51.700;6.874;2023-11-21T01:25:55;12.70;;;8.27;;
14858;SDS011;7521;51.700;6.874;2023-11-21T01:29:00;15.43;;;9.10;;
14858;SDS011;7521;51.700;6.874;2023-11-21T01:32:06;13.82;;;7.93;;
14858;SDS011;7521;51.700;6.874;2023-11-21T01:35:12;12.70;;;7.97;;
14858;SDS011;7521;51.700;6.874;2023-11-21T01:38:18;12.97;;;8.53;;
14858;SDS011;7521;51.700;6.874;2023-11-21T01:41:23;12.00;;;8.17;;
14858;SDS011;7521;51.700;6.874;2023-11-21T01:44:29;12.97;;;8.23;;
14858;SDS011;7521;51.700;6.874;2023-11-21T01:47:34;11.20;;;7.93;;
14858;SDS011;7521;51.700;6.874;2023-11-21T01:50:40;12.83;;;8.57;;
14858;SDS011;7521;51.700;6.874;2023-11-21T01:53:46;18.33;;;9.30;;
14858;SDS011;7521;51.700;6.874;2023-11-21T01:56:51;14.60;;;8.70;;
14858;SDS011;7521;51.700;6.874;2023-11-21T01:59:56;16.40;;;8.93;;
14858;SDS011;7521;51.700;6.874;2023-11-21T02:03:03;13.10;;;8.50;;
14858;SDS011;7521;51.700;6.874;2023-11-21T02:06:09;12.27;;;8.97;;
14858;SDS011;7521;51.700;6.874;2023-11-21T02:09:14;12.43;;;8.70;;
14858;SDS011;7521;51.700;6.874;2023-11-21T02:12:20;14.50;;;8.47;;
14858;SDS011;7521;51.700;6.874;2023-11-21T02:15:25;15.02;;;9.50;;
14858;SDS011;7521;51.700;6.874;2023-11-21T02:18:33;14.43;;;9.47;;
14858;SDS011;7521;51.700;6.874;2023-11-21T02:21:39;21.43;;;10.87;;
14858;SDS011;7521;51.700;6.874;2023-11-21T02:24:45;15.43;;;10.20;;
14858;SDS011;7521;51.700;6.874;2023-11-21T02:27:51;26.13;;;13.07;;
14858;SDS011;7521;51.700;6.874;2023-11-21T02:30:56;19.67;;;12.40;;
14858;SDS011;7521;51.700;6.874;2023-11-21T02:34:03;18.10;;;11.80;;
14858;SDS011;7521;51.700;6.874;2023-11-21T02:37:08;18.53;;;11.43;;
14858;SDS011;7521;51.700;6.874;2023-11-21T02:40:13;22.27;;;13.02;;
14858;SDS011;7521;51.700;6.874;2023-11-21T02:43:22;25.50;;;15.07;;
14858;SDS011;7521;51.700;6.874;2023-11-21T02:46:27;19.83;;;12.63;;
14858;SDS011;7521;51.700;6.874;2023-11-21T02:49:32;26.50;;;13.70;;
14858;SDS011;7521;51.700;6.874;2023-11-21T02:52:39;23.60;;;13.57;;
14858;SDS011;7521;51.700;6.874;2023-11-21T02:55:45;19.47;;;12.50;;
14858;SDS011;7521;51.700;6.874;2023-11-21T02:58:50;21.63;;;12.10;;
14858;SDS011;7521;51.700;6.874;2023-11-21T03:01:55;20.05;;;12.85;;
14858;SDS011;7521;51.700;6.874;2023-11-21T03:05:02;20.27;;;13.90;;
14858;SDS011;7521;51.700;6.874;2023-11-21T03:08:07;24.80;;;13.20;;
14858;SDS011;7521;51.700;6.874;2023-11-21T03:11:12;19.95;;;13.52;;
14858;SDS011;7521;51.700;6.874;2023-11-21T03:14:20;17.63;;;12.47;;
14858;SDS011;7521;51.700;6.874;2023-11-21T03:17:25;19.05;;;12.15;;
14858;SDS011;7521;51.700;6.874;2023-11-21T03:20:31;20.08;;;12.30;;
14858;SDS011;7521;51.700;6.874;2023-11-21T03:23:36;20.58;;;12.65;;
14858;SDS011;7521;51.700;6.874;2023-11-21T03:26:42;17.40;;;11.70;;
14858;SDS011;7521;51.700;6.874;2023-11-21T03:29:49;16.67;;;12.47;;
14858;SDS011;7521;51.700;6.874;2023-11-21T03:32:54;19.13;;;13.10;;
14858;SDS011;7521;51.700;6.874;2023-11-21T03:35:59;19.73;;;13.25;;
14858;SDS011;7521;51.700;6.874;2023-11-21T03:39:05;20.93;;;13.07;;
14858;SDS011;7521;51.700;6.874;2023-11-21T03:42:10;19.60;;;13.23;;
14858;SDS011;7521;51.700;6.874;2023-11-21T03:45:15;17.02;;;12.65;;
14858;SDS011;7521;51.700;6.874;2023-11-21T03:48:20;21.13;;;13.20;;
14858;SDS011;7521;51.700;6.874;2023-11-21T03:51:25;19.17;;;13.05;;
14858;SDS011;7521;51.700;6.874;2023-11-21T03:54:31;21.45;;;13.32;;
14858;SDS011;7521;51.700;6.874;2023-11-21T03:57:36;23.80;;;14.85;;
14858;SDS011;7521;51.700;6.874;2023-11-21T04:00:41;23.63;;;14.10;;
14858;SDS011;7521;51.700;6.874;2023-11-21T04:03:46;23.25;;;13.93;;
14858;SDS011;7521;51.700;6.874;2023-11-21T04:06:51;20.58;;;12.68;;
14858;SDS011;7521;51.700;6.874;2023-11-21T04:09:56;17.67;;;12.57;;
14858;SDS011;7521;51.700;6.874;2023-11-21T04:13:02;19.65;;;12.02;;
14858;SDS011;7521;51.700;6.874;2023-11-21T04:16:07;21.27;;;13.07;;
14858;SDS011;7521;51.700;6.874;2023-11-21T04:19:12;19.33;;;13.23;;
14858;SDS011;7521;51.700;6.874;2023-11-21T04:22:20;19.70;;;14.43;;
14858;SDS011;7521;51.700;6.874;2023-11-21T04:25:25;19.95;;;14.27;;
14858;SDS011;7521;51.700;6.874;2023-11-21T04:28:31;18.13;;;13.48;;
14858;SDS011;7521;51.700;6.874;2023-11-21T04:31:36;20.10;;;14.70;;
14858;SDS011;7521;51.700;6.874;2023-11-21T04:34:41;21.87;;;14.57;;
14858;SDS011;7521;51.700;6.874;2023-11-21T04:37:47;20.63;;;14.65;;
14858;SDS011;7521;51.700;6.874;2023-11-21T04:40:52;24.73;;;15.07;;
14858;SDS011;7521;51.700;6.874;2023-11-21T04:43:57;23.23;;;14.10;;
14858;SDS011;7521;51.700;6.874;2023-11-21T04:47:03;21.27;;;13.97;;
14858;SDS011;7521;51.700;6.874;2023-11-21T04:50:09;20.63;;;12.83;;
14858;SDS011;7521;51.700;6.874;2023-11-21T04:53:15;22.45;;;13.85;;
14858;SDS011;7521;51.700;6.874;2023-11-21T04:56:20;28.60;;;14.35;;
14858;SDS011;7521;51.700;6.874;2023-11-21T04:59:25;28.00;;;15.23;;
14858;SDS011;7521;51.700;6.874;2023-11-21T05:02:32;24.67;;;14.60;;
14858;SDS011;7521;51.700;6.874;2023-11-21T05:05:39;19.37;;;13.47;;
14858;SDS011;7521;51.700;6.874;2023-11-21T05:08:44;23.30;;;14.27;;
14858;SDS011;7521;51.700;6.874;2023-11-21T05:11:49;17.38;;;12.95;;
14858;SDS011;7521;51.700;6.874;2023-11-21T05:14:54;23.53;;;14.13;;
14858;SDS011;7521;51.700;6.874;2023-11-21T05:18:00;22.93;;;14.37;;
14858;SDS011;7521;51.700;6.874;2023-11-21T05:21:05;21.58;;;12.75;;
14858;SDS011;7521;51.700;6.874;2023-11-21T05:24:10;25.63;;;13.20;;
14858;SDS011;7521;51.700;6.874;2023-11-21T05:27:16;29.63;;;16.33;;
14858;SDS011;7521;51.700;6.874;2023-11-21T05:30:21;22.67;;;13.02;;
14858;SDS011;7521;51.700;6.874;2023-11-21T05:33:26;21.60;;;14.03;;
14858;SDS011;7521;51.700;6.874;2023-11-21T05:36:31;25.27;;;16.95;;
14858;SDS011;7521;51.700;6.874;2023-11-21T05:39:37;28.70;;;17.95;;
14858;SDS011;7521;51.700;6.874;2023-11-21T05:42:42;24.42;;;14.40;;
14858;SDS011;7521;51.700;6.874;2023-11-21T05:45:47;23.33;;;14.17;;
14858;SDS011;7521;51.700;6.874;2023-11-21T05:48:52;19.20;;;12.00;;
14858;SDS011;7521;51.700;6.874;2023-11-21T05:51:57;19.88;;;12.52;;
14858;SDS011;7521;51.700;6.874;2023-11-21T05:55:03;17.75;;;12.15;;
14858;SDS011;7521;51.700;6.874;2023-11-21T05:58:09;29.33;;;13.30;;
14858;SDS011;7521;51.700;6.874;2023-11-21T06:01:14;30.30;;;16.02;;
14858;SDS011;7521;51.700;6.874;2023-11-21T06:04:20;28.47;;;16.73;;
14858;SDS011;7521;51.700;6.874;2023-11-21T06:07:28;29.13;;;17.33;;
14858;SDS011;7521;51.700;6.874;2023-11-21T06:10:34;26.73;;;16.87;;
14858;SDS011;7521;51.700;6.874;2023-11-21T06:13:39;27.70;;;16.63;;
14858;SDS011;7521;51.700;6.874;2023-11-21T06:16:44;30.25;;;18.65;;
14858;SDS011;7521;51.700;6.874;2023-11-21T06:19:50;26.90;;;17.33;;
14858;SDS011;7521;51.700;6.874;2023-11-21T06:22:56;28.57;;;17.43;;
14858;SDS011;7521;51.700;6.874;2023-11-21T06:26:01;29.65;;;18.85;;
14858;SDS011;7521;51.700;6.874;2023-11-21T06:29:06;30.37;;;18.83;;
14858;SDS011;7521;51.700;6.874;2023-11-21T06:32:12;34.47;;;20.08;;
14858;SDS011;7521;51.700;6.874;2023-11-21T06:35:17;28.70;;;19.20;;
14858;SDS011;7521;51.700;6.874;2023-11-21T06:38:22;33.45;;;21.20;;
14858;SDS011;7521;51.700;6.874;2023-11-21T06:41:27;31.60;;;20.35;;
14858;SDS011;7521;51.700;6.874;2023-11-21T06:44:33;32.60;;;20.08;;
14858;SDS011;7521;51.700;6.874;2023-11-21T06:47:38;37.40;;;21.73;;
14858;SDS011;7521;51.700;6.874;2023-11-21T06:50:44;28.37;;;19.23;;
14858;SDS011;7521;51.700;6.874;2023-11-21T06:53:49;32.17;;;21.55;;
14858;SDS011;7521;51.700;6.874;2023-11-21T06:56:55;30.23;;;20.13;;
14858;SDS011;7521;51.700;6.874;2023-11-21T07:00:01;30.87;;;21.30;;
14858;SDS011;7521;51.700;6.874;2023-11-21T07:03:07;29.27;;;19.63;;
14858;SDS011;7521;51.700;6.874;2023-11-21T07:06:12;29.77;;;20.15;;
14858;SDS011;7521;51.700;6.874;2023-11-21T07:09:17;29.55;;;19.23;;
14858;SDS011;7521;51.700;6.874;2023-11-21T07:12:25;31.87;;;20.10;;
14858;SDS011;7521;51.700;6.874;2023-11-21T07:15:30;29.27;;;21.10;;
14858;SDS011;7521;51.700;6.874;2023-11-21T07:18:36;31.02;;;20.35;;
14858;SDS011;7521;51.700;6.874;2023-11-21T07:21:41;34.17;;;22.67;;
14858;SDS011;7521;51.700;6.874;2023-11-21T07:24:47;32.00;;;22.57;;
14858;SDS011;7521;51.700;6.874;2023-11-21T07:27:53;35.80;;;26.42;;
14858;SDS011;7521;51.700;6.874;2023-11-21T07:31:00;32.57;;;23.70;;
14858;SDS011;7521;51.700;6.874;2023-11-21T07:34:05;33.38;;;22.13;;
14858;SDS011;7521;51.700;6.874;2023-11-21T07:37:10;38.83;;;23.93;;
14858;SDS011;7521;51.700;6.874;2023-11-21T07:40:15;39.35;;;23.83;;
14858;SDS011;7521;51.700;6.874;2023-11-21T07:43:21;43.77;;;24.57;;
14858;SDS011;7521;51.700;6.874;2023-11-21T07:46:27;43.80;;;24.17;;
14858;SDS011;7521;51.700;6.874;2023-11-21T07:49:32;43.27;;;24.17;;
14858;SDS011;7521;51.700;6.874;2023-11-21T07:52:37;49.63;;;27.48;;
14858;SDS011;7521;51.700;6.874;2023-11-21T07:55:42;52.75;;;27.85;;
14858;SDS011;7521;51.700;6.874;2023-11-21T07:58:49;48.83;;;25.67;;
14858;SDS011;7521;51.700;6.874;2023-11-21T08:01:55;51.43;;;27.07;;
14858;SDS011;7521;51.700;6.874;2023-11-21T08:05:00;52.35;;;27.98;;
14858;SDS011;7521;51.700;6.874;2023-11-21T08:08:05;47.63;;;24.83;;
14858;SDS011;7521;51.700;6.874;2023-11-21T08:11:10;44.15;;;24.65;;
14858;SDS011;7521;51.700;6.874;2023-11-21T08:14:16;38.90;;;23.07;;
14858;SDS011;7521;51.700;6.874;2023-11-21T08:17:21;50.40;;;34.90;;
14858;SDS011;7521;51.700;6.874;2023-11-21T08:20:27;38.47;;;25.43;;
14858;SDS011;7521;51.700;6.874;2023-11-21T08:23:33;50.77;;;32.67;;
14858;SDS011;7521;51.700;6.874;2023-11-21T08:26:39;46.23;;;36.53;;
14858;SDS011;7521;51.700;6.874;2023-11-21T08:29:44;33.67;;;23.42;;
14858;SDS011;7521;51.700;6.874;2023-11-21T08:32:49;37.47;;;27.87;;
14858;SDS011;7521;51.700;6.874;2023-11-21T08:35:58;35.03;;;23.10;;
14858;SDS011;7521;51.700;6.874;2023-11-21T08:39:06;36.47;;;23.60;;
14858;SDS011;7521;51.700;6.874;2023-11-21T08:42:11;37.30;;;24.05;;
14858;SDS011;7521;51.700;6.874;2023-11-21T08:45:16;33.20;;;22.57;;
14858;SDS011;7521;51.700;6.874;2023-11-21T08:48:22;34.97;;;21.13;;
14858;SDS011;7521;51.700;6.874;2023-11-21T08:51:27;34.47;;;21.65;;
14858;SDS011;7521;51.700;6.874;2023-11-21T08:54:32;29.40;;;19.38;;
14858;SDS011;7521;51.700;6.874;2023-11-21T08:57:39;32.67;;;20.70;;
14858;SDS011;7521;51.700;6.874;2023-11-21T09:00:45;30.17;;;19.93;;
14858;SDS011;7521;51.700;6.874;2023-11-21T09:03:51;34.10;;;23.00;;
14858;SDS011;7521;51.700;6.874;2023-11-21T09:06:56;31.60;;;21.77;;
14858;SDS011;7521;51.700;6.874;2023-11-21T09:10:02;29.87;;;20.80;;
14858;SDS011;7521;51.700;6.874;2023-11-21T09:13:07;33.90;;;22.27;;
14858;SDS011;7521;51.700;6.874;2023-11-21T09:16:14;35.20;;;23.23;;
14858;SDS011;7521;51.700;6.874;2023-11-21T09:19:20;33.83;;;20.80;;
14858;SDS011;7521;51.700;6.874;2023-11-21T09:22:26;31.00;;;20.60;;
14858;SDS011;7521;51.700;6.874;2023-11-21T09:25:32;32.43;;;20.63;;
14858;SDS011;7521;51.700;6.874;2023-11-21T09:28:37;39.83;;;26.60;;
14858;SDS011;7521;51.700;6.874;2023-11-21T09:31:43;80.83;;;38.30;;
14858;SDS011;7521;51.700;6.874;2023-11-21T09:34:49;38.47;;;28.47;;
14858;SDS011;7521;51.700;6.874;2023-11-21T09:37:55;52.73;;;23.57;;
14858;SDS011;7521;51.700;6.874;2023-11-21T09:41:00;40.87;;;22.53;;
14858;SDS011;7521;51.700;6.874;2023-11-21T09:44:06;69.23;;;22.23;;
14858;SDS011;7521;51.700;6.874;2023-11-21T09:47:16;34.53;;;23.50;;
14858;SDS011;7521;51.700;6.874;2023-11-21T09:50:22;42.23;;;23.93;;
14858;SDS011;7521;51.700;6.874;2023-11-21T09:53:27;30.13;;;20.67;;
14858;SDS011;7521;51.700;6.874;2023-11-21T09:56:39;34.17;;;18.13;;
14858;SDS011;7521;51.700;6.874;2023-11-21T09:59:44;31.17;;;18.40;;
14858;SDS011;7521;51.700;6.874;2023-11-21T10:02:50;26.07;;;18.07;;
14858;SDS011;7521;51.700;6.874;2023-11-21T10:05:56;28.50;;;19.50;;
14858;SDS011;7521;51.700;6.874;2023-11-21T10:09:01;34.00;;;20.07;;
14858;SDS011;7521;51.700;6.874;2023-11-21T10:12:08;37.50;;;20.33;;
14858;SDS011;7521;51.700;6.874;2023-11-21T10:15:14;28.97;;;20.80;;
14858;SDS011;7521;51.700;6.874;2023-11-21T10:18:21;34.03;;;20.13;;
14858;SDS011;7521;51.700;6.874;2023-11-21T10:21:28;37.00;;;18.73;;
14858;SDS011;7521;51.700;6.874;2023-11-21T10:24:33;38.93;;;24.53;;
14858;SDS011;7521;51.700;6.874;2023-11-21T10:27:38;31.70;;;19.13;;
14858;SDS011;7521;51.700;6.874;2023-11-21T10:30:44;32.63;;;23.40;;
14858;SDS011;7521;51.700;6.874;2023-11-21T10:33:50;27.27;;;17.33;;
14858;SDS011;7521;51.700;6.874;2023-11-21T10:36:55;30.40;;;20.47;;
14858;SDS011;7521;51.700;6.874;2023-11-21T10:40:03;28.10;;;19.23;;
14858;SDS011;7521;51.700;6.874;2023-11-21T10:43:10;51.00;;;35.17;;
14858;SDS011;7521;51.700;6.874;2023-11-21T10:46:15;30.03;;;19.30;;
14858;SDS011;7521;51.700;6.874;2023-11-21T10:49:20;32.03;;;21.10;;
14858;SDS011;7521;51.700;6.874;2023-11-21T10:52:26;30.77;;;22.05;;
14858;SDS011;7521;51.700;6.874;2023-11-21T10:55:34;33.47;;;19.93;;
14858;SDS011;7521;51.700;6.874;2023-11-21T10:58:39;29.67;;;18.90;;
14858;SDS011;7521;51.700;6.874;2023-11-21T11:01:45;32.10;;;17.57;;
14858;SDS011;7521;51.700;6.874;2023-11-21T11:04:50;29.40;;;17.53;;
14858;SDS011;7521;51.700;6.874;2023-11-21T11:08:04;28.57;;;18.83;;
14858;SDS011;7521;51.700;6.874;2023-11-21T11:11:09;33.23;;;19.33;;
14858;SDS011;7521;51.700;6.874;2023-11-21T11:14:15;27.90;;;17.70;;
14858;SDS011;7521;51.700;6.874;2023-11-21T11:17:21;48.73;;;33.73;;
14858;SDS011;7521;51.700;6.874;2023-11-21T11:20:32;55.03;;;39.47;;
14858;SDS011;7521;51.700;6.874;2023-11-21T11:27:06;33.70;;;20.57;;
14858;SDS011;7521;51.700;6.874;2023-11-21T11:36:34;33.27;;;19.37;;
14858;SDS011;7521;51.700;6.874;2023-11-21T11:39:41;36.00;;;20.40;;
14858;SDS011;7521;51.700;6.874;2023-11-21T11:42:57;37.37;;;24.13;;
14858;SDS011;7521;51.700;6.874;2023-11-21T11:46:03;42.33;;;22.57;;
14858;SDS011;7521;51.700;6.874;2023-11-21T11:49:09;39.57;;;23.17;;
14858;SDS011;7521;51.700;6.874;2023-11-21T11:52:33;43.43;;;22.93;;
14858;SDS011;7521;51.700;6.874;2023-11-21T11:55:41;47.10;;;22.07;;
14858;SDS011;7521;51.700;6.874;2023-11-21T11:58:47;52.50;;;32.53;;
14858;SDS011;7521;51.700;6.874;2023-11-21T12:01:53;40.70;;;23.67;;
14858;SDS011;7521;51.700;6.874;2023-11-21T12:04:58;43.83;;;22.85;;
14858;SDS011;7521;51.700;6.874;2023-11-21T12:08:03;40.42;;;23.08;;
14858;SDS011;7521;51.700;6.874;2023-11-21T12:11:08;41.37;;;23.30;;
14858;SDS011;7521;51.700;6.874;2023-11-21T12:14:16;43.57;;;22.80;;
14858;SDS011;7521;51.700;6.874;2023-11-21T12:17:21;33.20;;;18.80;;
14858;SDS011;7521;51.700;6.874;2023-11-21T12:20:27;37.90;;;22.10;;
14858;SDS011;7521;51.700;6.874;2023-11-21T12:23:32;37.67;;;21.50;;
14858;SDS011;7521;51.700;6.874;2023-11-21T12:26:40;36.03;;;21.40;;
14858;SDS011;7521;51.700;6.874;2023-11-21T12:29:45;37.33;;;20.43;;
14858;SDS011;7521;51.700;6.874;2023-11-21T12:32:51;32.60;;;18.75;;
14858;SDS011;7521;51.700;6.874;2023-11-21T12:35:56;44.73;;;32.10;;
14858;SDS011;7521;51.700;6.874;2023-11-21T12:39:02;38.60;;;25.27;;
14858;SDS011;7521;51.700;6.874;2023-11-21T12:42:08;39.83;;;25.27;;
14858;SDS011;7521;51.700;6.874;2023-11-21T12:48:19;31.57;;;19.17;;
14858;SDS011;7521;51.700;6.874;2023-11-21T12:51:29;37.13;;;25.80;;
14858;SDS011;7521;51.700;6.874;2023-11-21T12:54:34;24.70;;;16.23;;
14858;SDS011;7521;51.700;6.874;2023-11-21T12:57:41;72.17;;;51.67;;
14858;SDS011;7521;51.700;6.874;2023-11-21T13:00:48;41.37;;;29.50;;
14858;SDS011;7521;51.700;6.874;2023-11-21T13:03:54;28.87;;;20.93;;
14858;SDS011;7521;51.700;6.874;2023-11-21T13:07:05;23.63;;;16.40;;
14858;SDS011;7521;51.700;6.874;2023-11-21T13:10:19;23.87;;;14.87;;
14858;SDS011;7521;51.700;6.874;2023-11-21T13:13:25;21.27;;;15.00;;
14858;SDS011;7521;51.700;6.874;2023-11-21T13:16:32;22.97;;;15.17;;
14858;SDS011;7521;51.700;6.874;2023-11-21T13:19:38;22.77;;;15.97;;
14858;SDS011;7521;51.700;6.874;2023-11-21T13:22:49;26.88;;;18.90;;
14858;SDS011;7521;51.700;6.874;2023-11-21T13:25:56;22.23;;;15.37;;
14858;SDS011;7521;51.700;6.874;2023-11-21T13:29:03;24.07;;;15.63;;
14858;SDS011;7521;51.700;6.874;2023-11-21T13:32:09;21.27;;;14.20;;
14858;SDS011;7521;51.700;6.874;2023-11-21T13:35:19;21.77;;;13.63;;
14858;SDS011;7521;51.700;6.874;2023-11-21T13:38:35;25.33;;;15.27;;
14858;SDS011;7521;51.700;6.874;2023-11-21T13:41:42;20.50;;;13.40;;
14858;SDS011;7521;51.700;6.874;2023-11-21T13:44:47;21.95;;;13.60;;
14858;SDS011;7521;51.700;6.874;2023-11-21T13:47:54;23.40;;;14.30;;
14858;SDS011;7521;51.700;6.874;2023-11-21T13:51:03;20.57;;;12.80;;
14858;SDS011;7521;51.700;6.874;2023-11-21T13:54:29;20.80;;;13.27;;
14858;SDS011;7521;51.700;6.874;2023-11-21T13:57:34;20.93;;;12.30;;
14858;SDS011;7521;51.700;6.874;2023-11-21T14:00:39;19.45;;;11.90;;
14858;SDS011;7521;51.700;6.874;2023-11-21T14:03:49;21.23;;;12.20;;
14858;SDS011;7521;51.700;6.874;2023-11-21T14:07:01;19.90;;;12.70;;
14858;SDS011;7521;51.700;6.874;2023-11-21T14:10:23;18.40;;;11.50;;
14858;SDS011;7521;51.700;6.874;2023-11-21T14:13:29;17.73;;;11.87;;
14858;SDS011;7521;51.700;6.874;2023-11-21T14:16:34;19.47;;;11.10;;
14858;SDS011;7521;51.700;6.874;2023-11-21T14:19:40;17.00;;;10.50;;
14858;SDS011;7521;51.700;6.874;2023-11-21T14:22:48;16.03;;;10.93;;
14858;SDS011;7521;51.700;6.874;2023-11-21T14:25:53;13.30;;;9.95;;
14858;SDS011;7521;51.700;6.874;2023-11-21T14:28:58;14.13;;;9.87;;
14858;SDS011;7521;51.700;6.874;2023-11-21T14:32:04;14.53;;;9.70;;
14858;SDS011;7521;51.700;6.874;2023-11-21T14:35:10;13.23;;;8.37;;
14858;SDS011;7521;51.700;6.874;2023-11-21T14:38:15;12.57;;;8.37;;
14858;SDS011;7521;51.700;6.874;2023-11-21T14:41:21;12.10;;;8.63;;
14858;SDS011;7521;51.700;6.874;2023-11-21T14:44:26;11.80;;;8.40;;
14858;SDS011;7521;51.700;6.874;2023-11-21T14:47:35;12.07;;;8.03;;
14858;SDS011;7521;51.700;6.874;2023-11-21T14:50:47;10.77;;;8.23;;
14858;SDS011;7521;51.700;6.874;2023-11-21T14:54:07;10.90;;;8.37;;
14858;SDS011;7521;51.700;6.874;2023-11-21T14:57:13;9.43;;;7.57;;
14858;SDS011;7521;51.700;6.874;2023-11-21T15:00:23;11.63;;;7.70;;
14858;SDS011;7521;51.700;6.874;2023-11-21T15:03:40;9.30;;;7.90;;
14858;SDS011;7521;51.700;6.874;2023-11-21T15:06:49;9.30;;;7.60;;
14858;SDS011;7521;51.700;6.874;2023-11-21T15:09:54;13.03;;;8.47;;
14858;SDS011;7521;51.700;6.874;2023-11-21T15:12:59;9.65;;;7.80;;
14858;SDS011;7521;51.700;6.874;2023-11-21T15:16:04;10.93;;;7.97;;
14858;SDS011;7521;51.700;6.874;2023-11-21T15:19:12;10.93;;;9.10;;
14858;SDS011;7521;51.700;6.874;2023-11-21T15:22:23;13.53;;;8.93;;
14858;SDS011;7521;51.700;6.874;2023-11-21T15:25:28;12.93;;;9.73;;
14858;SDS011;7521;51.700;6.874;2023-11-21T15:28:33;14.68;;;9.88;;
14858;SDS011;7521;51.700;6.874;2023-11-21T15:31:39;15.77;;;10.77;;
14858;SDS011;7521;51.700;6.874;2023-11-21T15:34:48;13.40;;;10.60;;
14858;SDS011;7521;51.700;6.874;2023-11-21T15:37:54;13.65;;;11.25;;
14858;SDS011;7521;51.700;6.874;2023-11-21T15:41:03;15.10;;;11.00;;
14858;SDS011;7521;51.700;6.874;2023-11-21T15:44:08;14.43;;;11.10;;
14858;SDS011;7521;51.700;6.874;2023-11-21T15:47:16;14.13;;;10.87;;
14858;SDS011;7521;51.700;6.874;2023-11-21T15:50:21;14.48;;;11.43;;
14858;SDS011;7521;51.700;6.874;2023-11-21T15:53:26;13.47;;;10.57;;
14858;SDS011;7521;51.700;6.874;2023-11-21T15:56:31;16.58;;;11.35;;
14858;SDS011;7521;51.700;6.874;2023-11-21T15:59:39;14.87;;;10.57;;
14858;SDS011;7521;51.700;6.874;2023-11-21T16:02:47;14.23;;;11.27;;
14858;SDS011;7521;51.700;6.874;2023-11-21T16:05:52;14.03;;;10.47;;
14858;SDS011;7521;51.700;6.874;2023-11-21T16:08:57;12.15;;;10.57;;
14858;SDS011;7521;51.700;6.874;2023-11-21T16:12:04;12.00;;;9.60;;
14858;SDS011;7521;51.700;6.874;2023-11-21T16:15:10;12.87;;;9.27;;
14858;SDS011;7521;51.700;6.874;2023-11-21T16:18:16;10.60;;;9.20;;
14858;SDS011;7521;51.700;6.874;2023-11-21T16:21:21;11.25;;;8.70;;
14858;SDS011;7521;51.700;6.874;2023-11-21T16:24:27;12.40;;;8.73;;
14858;SDS011;7521;51.700;6.874;2023-11-21T16:27:33;12.03;;;8.97;;
14858;SDS011;7521;51.700;6.874;2023-11-21T16:30:40;11.53;;;8.67;;
14858;SDS011;7521;51.700;6.874;2023-11-21T16:33:45;11.30;;;9.10;;
14858;SDS011;7521;51.700;6.874;2023-11-21T16:36:50;11.10;;;8.38;;
14858;SDS011;7521;51.700;6.874;2023-11-21T16:39:55;13.00;;;8.53;;
14858;SDS011;7521;51.700;6.874;2023-11-21T16:43:01;11.05;;;7.82;;
14858;SDS011;7521;51.700;6.874;2023-11-21T16:46:07;11.43;;;8.80;;
14858;SDS011;7521;51.700;6.874;2023-11-21T16:49:16;11.33;;;8.90;;
14858;SDS011;7521;51.700;6.874;2023-11-21T16:52:21;10.70;;;8.13;;
14858;SDS011;7521;51.700;6.874;2023-11-21T16:55:27;13.10;;;8.20;;
14858;SDS011;7521;51.700;6.874;2023-11-21T16:58:32;11.75;;;8.68;;
14858;SDS011;7521;51.700;6.874;2023-11-21T17:01:38;9.57;;;8.30;;
14858;SDS011;7521;51.700;6.874;2023-11-21T17:04:43;13.90;;;7.82;;
14858;SDS011;7521;51.700;6.874;2023-11-21T17:07:50;10.47;;;8.00;;
14858;SDS011;7521;51.700;6.874;2023-11-21T17:10:55;10.17;;;7.47;;
14858;SDS011;7521;51.700;6.874;2023-11-21T17:14:00;8.82;;;7.15;;
14858;SDS011;7521;51.700;6.874;2023-11-21T17:17:05;9.77;;;7.27;;
14858;SDS011;7521;51.700;6.874;2023-11-21T17:20:13;10.00;;;7.30;;
14858;SDS011;7521;51.700;6.874;2023-11-21T17:23:18;9.63;;;7.17;;
14858;SDS011;7521;51.700;6.874;2023-11-21T17:26:23;8.70;;;6.97;;
14858;SDS011;7521;51.700;6.874;2023-11-21T17:29:29;9.80;;;7.63;;
14858;SDS011;7521;51.700;6.874;2023-11-21T17:32:34;9.23;;;6.97;;
14858;SDS011;7521;51.700;6.874;2023-11-21T17:35:40;9.47;;;7.10;;
14858;SDS011;7521;51.700;6.874;2023-11-21T17:38:46;12.20;;;8.87;;
14858;SDS011;7521;51.700;6.874;2023-11-21T17:41:51;8.98;;;7.03;;
14858;SDS011;7521;51.700;6.874;2023-11-21T17:44:57;11.15;;;8.43;;
14858;SDS011;7521;51.700;6.874;2023-11-21T17:48:02;12.10;;;8.50;;
14858;SDS011;7521;51.700;6.874;2023-11-21T17:51:07;12.00;;;7.93;;
14858;SDS011;7521;51.700;6.874;2023-11-21T17:54:15;13.43;;;8.53;;
14858;SDS011;7521;51.700;6.874;2023-11-21T17:57:20;13.97;;;8.47;;
14858;SDS011;7521;51.700;6.874;2023-11-21T18:00:25;13.35;;;8.80;;
14858;SDS011;7521;51.700;6.874;2023-11-21T18:03:31;10.83;;;8.03;;
14858;SDS011;7521;51.700;6.874;2023-11-21T18:06:37;12.20;;;8.60;;
14858;SDS011;7521;51.700;6.874;2023-11-21T18:09:42;11.17;;;8.53;;
14858;SDS011;7521;51.700;6.874;2023-11-21T18:12:48;11.47;;;8.57;;
14858;SDS011;7521;51.700;6.874;2023-11-21T18:15:53;13.68;;;8.30;;
14858;SDS011;7521;51.700;6.874;2023-11-21T18:18:59;14.50;;;9.73;;
14858;SDS011;7521;51.700;6.874;2023-11-21T18:22:04;11.87;;;9.43;;
14858;SDS011;7521;51.700;6.874;2023-11-21T18:25:10;12.83;;;9.27;;
14858;SDS011;7521;51.700;6.874;2023-11-21T18:28:16;12.90;;;9.67;;
14858;SDS011;7521;51.700;6.874;2023-11-21T18:31:22;13.63;;;9.80;;
14858;SDS011;7521;51.700;6.874;2023-11-21T18:34:27;14.65;;;10.55;;
14858;SDS011;7521;51.700;6.874;2023-11-21T18:37:32;12.13;;;9.80;;
14858;SDS011;7521;51.700;6.874;2023-11-21T18:40:37;13.30;;;9.80;;
14858;SDS011;7521;51.700;6.874;2023-11-21T18:43:43;13.10;;;9.70;;